Time;durP1;ratioP1;P1;durP2;ratioP2;P2;SDS_P1;SDS_P2;PMS_P1;PMS_P2;Temp;Humidity;BMP_temperature;BMP_pressure;BME280_temperature;BME280_humidity;BME280_pressure;Samples;Min_cycle;Max_cycle;Signal;HPM_P1;HPM_P2
2023/11/02 00:00:09;;;;;;;0.10;0.10;;;;;;;9.97;100.00;97299.53;4904841;29;20510;-58
2023/11/02 00:02:38;;;;;;;0.20;0.20;;;;;;;9.95;100.00;97296.31;4911803;29;20513;-58
2023/11/02 00:05:06;;;;;;;0.20;0.20;;;;;;;9.88;100.00;97285.97;4902972;29;20144;-58
2023/11/02 00:07:33;;;;;;;0.20;0.20;;;;;;;9.85;100.00;97285.75;4903673;29;20071;-58
2023/11/02 00:10:03;;;;;;;0.20;0.20;;;;;;;9.85;100.00;97275.81;4906438;29;20075;-59
2023/11/02 00:12:30;;;;;;;0.30;0.30;;;;;;;9.87;100.00;97272.88;4902459;29;20036;-58
2023/11/02 00:14:57;;;;;;;0.20;0.20;;;;;;;9.91;100.00;97268.56;4905598;29;20135;-58
2023/11/02 00:17:56;;;;;;;0.20;0.20;;;;;;;10.07;100.00;97266.50;4896155;29;20076;-58
2023/11/02 00:20:34;;;;;;;0.20;0.20;;;;;;;10.00;100.00;97256.13;4896949;29;20466;-58
2023/11/02 00:23:01;;;;;;;0.20;0.20;;;;;;;9.98;100.00;97247.56;4900511;29;20080;-58
2023/11/02 00:25:56;;;;;;;0.20;0.20;;;;;;;10.05;100.00;97253.38;4898886;29;20487;-59
2023/11/02 00:28:23;;;;;;;0.20;0.20;;;;;;;10.04;100.00;97242.97;4897270;29;20507;-58
2023/11/02 00:30:51;;;;;;;0.20;0.20;;;;;;;9.99;100.00;97241.16;4906812;29;20056;-58
2023/11/02 00:33:18;;;;;;;0.10;0.10;;;;;;;10.06;100.00;97233.56;4906364;29;20048;-59
2023/11/02 00:35:46;;;;;;;0.20;0.20;;;;;;;10.07;100.00;97245.06;4907169;29;20060;-59
2023/11/02 00:38:18;;;;;;;0.30;0.30;;;;;;;10.07;100.00;97237.84;4906011;29;20052;-59
2023/11/02 00:40:46;;;;;;;0.10;0.10;;;;;;;10.13;100.00;97244.72;4906308;29;20060;-59
2023/11/02 00:43:14;;;;;;;0.20;0.20;;;;;;;10.14;100.00;97238.28;4911012;29;20170;-59
2023/11/02 00:45:42;;;;;;;0.20;0.20;;;;;;;10.17;100.00;97228.09;4902750;29;20067;-58
2023/11/02 00:48:14;;;;;;;0.25;0.25;;;;;;;10.11;100.00;97212.09;4905568;29;20048;-58
2023/11/02 00:51:12;;;;;;;0.20;0.20;;;;;;;10.16;100.00;97195.16;4900125;29;20040;-58
2023/11/02 00:53:42;;;;;;;0.20;0.20;;;;;;;10.05;100.00;97186.47;4898740;29;20053;-58
2023/11/02 00:56:10;;;;;;;0.20;0.20;;;;;;;10.11;100.00;97166.59;4907721;29;20140;-58
2023/11/02 00:58:39;;;;;;;0.20;0.20;;;;;;;10.07;100.00;97162.88;4901274;29;20131;-58
2023/11/02 01:01:10;;;;;;;0.20;0.20;;;;;;;10.08;100.00;97167.19;4901476;29;20131;-58
2023/11/02 01:03:37;;;;;;;0.20;0.20;;;;;;;10.08;100.00;97161.00;4898364;29;20051;-58
2023/11/02 01:06:04;;;;;;;0.20;0.20;;;;;;;10.07;100.00;97146.84;4912662;29;20566;-58
2023/11/02 01:08:32;;;;;;;0.20;0.20;;;;;;;10.02;100.00;97141.56;4898776;29;20395;-58
2023/11/02 01:10:59;;;;;;;0.15;0.15;;;;;;;10.01;100.00;97129.25;4914897;29;20044;-59
2023/11/02 01:13:28;;;;;;;0.20;0.20;;;;;;;10.04;100.00;97125.22;4906787;29;20071;-59
2023/11/02 01:16:04;;;;;;;0.20;0.20;;;;;;;9.94;100.00;97118.91;4899921;29;20043;-58
2023/11/02 01:18:31;;;;;;;0.20;0.20;;;;;;;9.88;100.00;97108.56;4908143;29;20129;-58
2023/11/02 01:21:02;;;;;;;0.30;0.30;;;;;;;9.93;100.00;97095.94;4898889;29;20410;-58
2023/11/02 01:23:29;;;;;;;0.20;0.20;;;;;;;9.95;100.00;97082.25;4892430;29;20051;-59
2023/11/02 01:25:57;;;;;;;0.20;0.20;;;;;;;9.92;100.00;97080.94;4902179;29;20076;-58
2023/11/02 01:28:24;;;;;;;0.30;0.30;;;;;;;9.97;100.00;97064.03;4902954;29;20563;-58
2023/11/02 01:31:14;;;;;;;0.20;0.20;;;;;;;9.89;100.00;97060.13;4902874;29;20498;-58
2023/11/02 01:33:58;;;;;;;0.20;0.20;;;;;;;9.97;100.00;97058.66;4903724;29;20139;-58
2023/11/02 01:36:36;;;;;;;0.30;0.30;;;;;;;9.88;100.00;97055.06;4909470;29;20059;-58
2023/11/02 01:39:31;;;;;;;0.20;0.20;;;;;;;9.84;100.00;97046.81;4898349;29;20052;-58
2023/11/02 01:42:03;;;;;;;0.30;0.30;;;;;;;9.86;100.00;97038.50;4896370;29;20055;-58
2023/11/02 01:44:36;;;;;;;0.20;0.20;;;;;;;9.85;100.00;97018.19;4900050;29;20044;-58
2023/11/02 01:47:09;;;;;;;0.28;0.28;;;;;;;9.83;100.00;97012.31;4904621;29;20043;-58
2023/11/02 01:49:51;;;;;;;0.20;0.20;;;;;;;9.83;100.00;97009.66;4906933;29;20044;-58
2023/11/02 01:52:36;;;;;;;0.20;0.20;;;;;;;9.78;100.00;96991.00;4902626;29;20634;-59
2023/11/02 01:55:07;;;;;;;0.20;0.20;;;;;;;9.81;100.00;96975.19;4900708;29;20072;-58
2023/11/02 01:57:39;;;;;;;0.20;0.20;;;;;;;9.78;100.00;96962.34;4908064;29;20159;-58
2023/11/02 02:00:07;;;;;;;0.28;0.28;;;;;;;9.85;100.00;96959.31;4905604;29;20567;-58
2023/11/02 02:02:40;;;;;;;0.20;0.20;;;;;;;9.85;100.00;96949.41;4903217;29;20060;-58
2023/11/02 02:05:11;;;;;;;0.20;0.20;;;;;;;9.83;100.00;96948.13;4896180;29;20092;-59
2023/11/02 02:07:42;;;;;;;0.20;0.20;;;;;;;9.82;100.00;96933.16;4899441;29;20499;-58
2023/11/02 02:10:14;;;;;;;0.20;0.20;;;;;;;9.84;100.00;96931.78;4904868;29;20055;-58
2023/11/02 02:13:02;;;;;;;0.20;0.20;;;;;;;9.87;100.00;96919.69;4900983;29;20036;-58
2023/11/02 02:15:33;;;;;;;0.20;0.20;;;;;;;9.88;100.00;96918.59;4896673;29;20128;-58
2023/11/02 02:18:07;;;;;;;0.20;0.20;;;;;;;9.85;100.00;96932.56;4900251;29;20049;-59
2023/11/02 02:20:35;;;;;;;0.20;0.20;;;;;;;9.81;100.00;96913.66;4904090;29;20051;-59
2023/11/02 02:23:08;;;;;;;0.20;0.20;;;;;;;9.84;100.00;96931.00;4898333;29;20440;-58
2023/11/02 02:25:38;;;;;;;0.30;0.30;;;;;;;9.74;100.00;96941.88;4893011;29;20046;-58
2023/11/02 02:28:23;;;;;;;0.20;0.20;;;;;;;9.79;100.00;96933.75;4902991;29;20504;-58
2023/11/02 02:31:00;;;;;;;0.30;0.30;;;;;;;9.73;100.00;96935.69;4903921;29;20415;-58
2023/11/02 02:34:02;;;;;;;0.20;0.20;;;;;;;9.67;100.00;96942.22;4908266;29;20043;-59
2023/11/02 02:36:34;;;;;;;0.20;0.20;;;;;;;9.61;100.00;96928.16;4910234;29;20538;-60
2023/11/02 02:39:04;;;;;;;0.30;0.30;;;;;;;9.60;100.00;96915.06;4900053;29;20123;-59
2023/11/02 02:41:33;;;;;;;0.30;0.30;;;;;;;9.61;100.00;96912.09;4896591;29;20137;-59
2023/11/02 02:44:00;;;;;;;0.20;0.20;;;;;;;9.58;100.00;96896.63;4905587;29;20075;-59
2023/11/02 02:46:27;;;;;;;0.20;0.20;;;;;;;9.58;100.00;96893.94;4903909;29;20637;-59
2023/11/02 02:48:54;;;;;;;0.20;0.20;;;;;;;9.51;100.00;96877.50;4907738;29;20396;-59
2023/11/02 02:51:21;;;;;;;0.15;0.15;;;;;;;9.59;100.00;96882.19;4904694;29;20072;-59
2023/11/02 02:53:51;;;;;;;0.17;0.17;;;;;;;9.58;100.00;96890.47;4904289;29;20456;-59
2023/11/02 02:56:22;;;;;;;0.20;0.20;;;;;;;9.65;100.00;96878.31;4896731;29;20127;-59
2023/11/02 02:58:52;;;;;;;0.20;0.20;;;;;;;9.62;100.00;96873.56;4903010;29;20090;-59
2023/11/02 03:01:20;;;;;;;0.28;0.28;;;;;;;9.60;100.00;96877.63;4903813;29;20092;-59
2023/11/02 03:03:46;;;;;;;0.22;0.22;;;;;;;9.54;100.00;96862.75;4898426;29;20073;-59
2023/11/02 03:06:13;;;;;;;0.20;0.20;;;;;;;9.56;100.00;96856.03;4907414;29;20048;-59
2023/11/02 03:08:41;;;;;;;0.20;0.20;;;;;;;9.67;100.00;96837.91;4909899;29;20049;-59
2023/11/02 03:11:10;;;;;;;0.30;0.30;;;;;;;9.69;100.00;96847.22;4898052;29;20139;-59
2023/11/02 03:13:39;;;;;;;0.20;0.20;;;;;;;9.68;100.00;96831.47;4910918;29;20796;-59
2023/11/02 03:16:07;;;;;;;0.20;0.20;;;;;;;9.57;100.00;96828.19;4918388;29;20048;-59
2023/11/02 03:18:34;;;;;;;0.20;0.20;;;;;;;9.53;100.00;96813.81;4899659;29;20131;-59
2023/11/02 03:21:01;;;;;;;0.28;0.28;;;;;;;9.61;100.00;96798.97;4893251;29;20060;-59
2023/11/02 03:23:32;;;;;;;0.20;0.20;;;;;;;9.56;100.00;96777.66;4900541;29;20052;-58
2023/11/02 03:25:59;;;;;;;;;;;;;;;9.60;100.00;96787.47;4901004;29;20056;-59
2023/11/02 03:28:35;;;;;;;0.20;0.20;;;;;;;9.62;100.00;96757.78;4912345;29;20750;-59
2023/11/02 03:31:11;;;;;;;0.20;0.20;;;;;;;9.70;100.00;96768.56;4906688;29;20491;-59
2023/11/02 03:33:42;;;;;;;0.20;0.20;;;;;;;9.75;100.00;96742.81;4903057;29;20040;-59
2023/11/02 03:36:11;;;;;;;0.30;0.30;;;;;;;9.85;100.00;96739.94;4900875;29;20048;-59
2023/11/02 03:38:47;;;;;;;0.20;0.20;;;;;;;9.97;100.00;96721.50;4900112;29;20464;-58
2023/11/02 03:41:19;;;;;;;0.20;0.20;;;;;;;10.10;100.00;96718.00;4905413;29;21260;-59
2023/11/02 03:43:56;;;;;;;0.25;0.25;;;;;;;10.09;100.00;96716.44;4899932;29;20051;-59
2023/11/02 03:46:28;;;;;;;0.20;0.20;;;;;;;10.14;99.59;96699.47;4905372;29;20460;-59
2023/11/02 03:49:10;;;;;;;0.20;0.20;;;;;;;10.14;99.75;96705.63;4907177;29;20391;-59
2023/11/02 03:51:40;;;;;;;0.28;0.28;;;;;;;10.13;99.55;96714.75;4897963;29;20040;-59
2023/11/02 03:54:26;;;;;;;0.20;0.20;;;;;;;10.18;99.79;96694.31;4918972;29;20566;-59
2023/11/02 03:57:01;;;;;;;0.20;0.20;;;;;;;10.18;99.83;96672.88;4905303;29;20372;-59
2023/11/02 03:59:32;;;;;;;0.20;0.20;;;;;;;10.11;100.00;96684.81;4900220;29;20040;-58
2023/11/02 04:02:00;;;;;;;0.20;0.20;;;;;;;10.09;99.91;96686.22;4910796;29;20071;-58
2023/11/02 04:04:31;;;;;;;0.30;0.30;;;;;;;10.09;99.60;96676.28;4903718;29;20044;-59
2023/11/02 04:07:01;;;;;;;0.25;0.25;;;;;;;10.17;99.22;96679.34;4912973;29;20123;-59
2023/11/02 04:09:32;;;;;;;0.20;0.20;;;;;;;10.18;100.00;96688.94;4898045;29;20138;-59
2023/11/02 04:12:00;;;;;;;0.20;0.20;;;;;;;10.21;98.51;96665.06;4900265;29;20456;-59
2023/11/02 04:14:27;;;;;;;0.20;0.20;;;;;;;10.10;100.00;96672.50;4909915;29;20634;-59
2023/11/02 04:16:56;;;;;;;0.15;0.15;;;;;;;10.10;100.00;96664.47;4905610;29;20067;-59
2023/11/02 04:19:23;;;;;;;0.20;0.20;;;;;;;9.99;100.00;96665.81;4894869;29;20101;-59
2023/11/02 04:21:50;;;;;;;0.20;0.20;;;;;;;9.94;100.00;96657.88;4912415;29;20127;-59
2023/11/02 04:24:17;;;;;;;0.20;0.20;;;;;;;9.92;100.00;96644.03;4912871;29;20040;-58
2023/11/02 04:26:44;;;;;;;0.30;0.30;;;;;;;9.83;100.00;96637.78;4903721;29;20724;-58
2023/11/02 04:29:11;;;;;;;0.20;0.20;;;;;;;9.75;100.00;96622.44;4902026;29;20128;-58
2023/11/02 04:31:38;;;;;;;0.20;0.20;;;;;;;9.65;100.00;96612.75;4903471;29;20096;-58
2023/11/02 04:34:07;;;;;;;0.20;0.20;;;;;;;9.64;100.00;96606.63;4907742;29;20576;-58
2023/11/02 04:36:34;;;;;;;0.28;0.28;;;;;;;9.55;100.00;96592.38;4902894;29;20471;-59
2023/11/02 04:39:01;;;;;;;0.20;0.20;;;;;;;9.50;100.00;96577.22;4904627;29;20168;-58
2023/11/02 04:41:28;;;;;;;0.30;0.30;;;;;;;9.39;100.00;96573.19;4901999;29;20194;-58
2023/11/02 04:43:55;;;;;;;0.30;0.30;;;;;;;9.34;100.00;96577.88;4899691;29;20317;-59
2023/11/02 04:46:22;;;;;;;0.30;0.30;;;;;;;9.35;100.00;96574.09;4905790;29;20045;-59
2023/11/02 04:48:49;;;;;;;0.20;0.20;;;;;;;9.23;100.00;96559.34;4906200;29;20079;-59
2023/11/02 04:51:17;;;;;;;0.20;0.20;;;;;;;9.24;100.00;96544.91;4899782;29;20143;-59
2023/11/02 04:53:44;;;;;;;0.20;0.20;;;;;;;9.14;100.00;96536.31;4898729;29;20147;-59
2023/11/02 04:56:11;;;;;;;0.30;0.30;;;;;;;9.07;100.00;96518.78;4904612;29;20119;-59
2023/11/02 04:58:38;;;;;;;0.20;0.20;;;;;;;9.08;100.00;96519.56;4908512;29;20487;-59
2023/11/02 05:01:07;;;;;;;0.20;0.20;;;;;;;9.02;100.00;96507.41;4905894;29;20123;-59
2023/11/02 05:03:34;;;;;;;0.30;0.30;;;;;;;9.09;100.00;96494.44;4898564;29;20044;-59
2023/11/02 05:06:01;;;;;;;0.25;0.25;;;;;;;9.07;100.00;96515.31;4901041;29;20143;-59
2023/11/02 05:08:30;;;;;;;0.28;0.28;;;;;;;9.04;100.00;96490.00;4903954;29;20037;-60
2023/11/02 05:10:57;;;;;;;0.30;0.30;;;;;;;9.02;100.00;96481.47;4908618;29;20071;-59
2023/11/02 05:13:24;;;;;;;0.30;0.30;;;;;;;8.99;100.00;96468.72;4916975;29;20044;-59
2023/11/02 05:15:52;;;;;;;0.20;0.20;;;;;;;9.21;100.00;96451.16;4902216;29;20644;-59
2023/11/02 05:18:19;;;;;;;0.20;0.20;;;;;;;9.08;100.00;96442.09;4901556;29;20924;-59
2023/11/02 05:20:46;;;;;;;0.20;0.20;;;;;;;8.98;100.00;96424.38;4902427;29;20265;-59
2023/11/02 05:23:13;;;;;;;0.30;0.30;;;;;;;9.04;100.00;96409.06;4914550;29;20263;-59
2023/11/02 05:25:41;;;;;;;0.20;0.20;;;;;;;9.02;100.00;96392.53;4909226;29;20344;-59
2023/11/02 05:28:09;;;;;;;0.30;0.30;;;;;;;9.04;100.00;96385.81;4906242;29;20047;-60
2023/11/02 05:30:39;;;;;;;0.30;0.30;;;;;;;9.07;100.00;96363.03;4903809;29;20052;-60
2023/11/02 05:33:06;;;;;;;0.28;0.28;;;;;;;9.02;100.00;96360.47;4908168;29;20063;-59
2023/11/02 05:35:33;;;;;;;0.20;0.20;;;;;;;9.04;100.00;96379.66;4906804;29;20055;-60
2023/11/02 05:38:00;;;;;;;0.20;0.20;;;;;;;9.09;100.00;96400.94;4902634;29;20524;-59
2023/11/02 05:40:27;;;;;;;0.17;0.17;;;;;;;9.30;100.00;96390.56;4905557;29;20641;-59
2023/11/02 05:42:55;;;;;;;0.30;0.30;;;;;;;9.39;100.00;96375.38;4904475;29;20131;-59
2023/11/02 05:45:22;;;;;;;0.20;0.20;;;;;;;9.20;100.00;96380.88;4914725;29;20048;-59
2023/11/02 05:47:49;;;;;;;0.20;0.20;;;;;;;9.05;100.00;96346.50;4913561;29;20107;-59
2023/11/02 05:50:17;;;;;;;0.20;0.20;;;;;;;9.04;100.00;96289.63;4899019;29;20637;-59
2023/11/02 05:52:44;;;;;;;0.30;0.30;;;;;;;8.99;100.00;96203.47;4903921;29;20134;-59
2023/11/02 05:55:12;;;;;;;0.22;0.22;;;;;;;8.94;100.00;96209.72;4906473;29;20056;-59
2023/11/02 05:57:39;;;;;;;0.20;0.20;;;;;;;8.93;100.00;96218.81;4904685;29;20535;-59
2023/11/02 06:00:10;;;;;;;0.20;0.20;;;;;;;8.99;100.00;96249.66;4907094;29;20057;-59
2023/11/02 06:02:37;;;;;;;0.30;0.30;;;;;;;9.05;100.00;96272.50;4908006;29;20511;-59
2023/11/02 06:05:05;;;;;;;0.30;0.30;;;;;;;9.19;100.00;96263.63;4906167;29;20047;-59
2023/11/02 06:07:32;;;;;;;0.25;0.25;;;;;;;9.20;100.00;96292.69;4903904;29;20048;-59
2023/11/02 06:10:00;;;;;;;0.22;0.22;;;;;;;9.23;100.00;96296.66;4899587;29;20079;-59
2023/11/02 06:12:28;;;;;;;0.28;0.28;;;;;;;9.20;100.00;96314.06;4908626;29;20040;-59
2023/11/02 06:14:55;;;;;;;0.20;0.20;;;;;;;9.18;100.00;96289.53;4915027;29;20478;-59
2023/11/02 06:17:24;;;;;;;0.35;0.35;;;;;;;9.18;100.00;96233.44;4909772;29;20206;-58
2023/11/02 06:19:51;;;;;;;0.25;0.25;;;;;;;9.20;100.00;96222.44;4898267;29;20071;-59
2023/11/02 06:22:18;;;;;;;0.30;0.30;;;;;;;9.05;100.00;96264.47;4905118;29;20081;-59
2023/11/02 06:24:45;;;;;;;0.20;0.20;;;;;;;9.01;100.00;96227.97;4903828;29;20480;-59
2023/11/02 06:27:13;;;;;;;0.20;0.20;;;;;;;8.95;100.00;96216.63;4901575;29;20040;-59
2023/11/02 06:29:40;;;;;;;0.30;0.30;;;;;;;9.04;100.00;96208.69;4896244;29;20185;-59
2023/11/02 06:32:07;;;;;;;0.20;0.20;;;;;;;9.07;100.00;96184.81;4911744;29;20054;-59
2023/11/02 06:34:39;;;;;;;0.20;0.20;;;;;;;9.11;100.00;96150.28;4907837;29;20391;-59
2023/11/02 06:37:08;;;;;;;0.22;0.22;;;;;;;9.13;100.00;96142.72;4906112;29;20044;-59
2023/11/02 06:39:36;;;;;;;0.30;0.30;;;;;;;9.14;100.00;96149.66;4899107;29;20049;-59
2023/11/02 06:42:03;;;;;;;0.20;0.20;;;;;;;9.26;100.00;96117.78;4901063;29;20064;-59
2023/11/02 06:44:30;;;;;;;0.38;0.38;;;;;;;9.23;100.00;96112.25;4903470;29;20411;-59
2023/11/02 06:46:57;;;;;;;0.30;0.30;;;;;;;9.25;100.00;96144.81;4908243;29;21003;-59
2023/11/02 06:49:24;;;;;;;0.20;0.20;;;;;;;9.29;100.00;96141.22;4908371;29;20048;-59
2023/11/02 06:51:53;;;;;;;0.30;0.30;;;;;;;9.34;100.00;96131.50;4897057;29;20056;-59
2023/11/02 06:54:20;;;;;;;0.20;0.20;;;;;;;9.47;100.00;96135.94;4909299;29;20205;-59
2023/11/02 06:56:47;;;;;;;0.30;0.30;;;;;;;9.44;100.00;96157.94;4907160;29;20154;-59
2023/11/02 06:59:16;;;;;;;0.20;0.20;;;;;;;9.49;100.00;96176.50;4915468;29;20044;-59
2023/11/02 07:01:44;;;;;;;0.20;0.20;;;;;;;9.64;100.00;96189.44;4903800;29;20052;-59
2023/11/02 07:04:11;;;;;;;0.20;0.20;;;;;;;9.65;100.00;96169.63;4909602;29;20036;-59
2023/11/02 07:06:38;;;;;;;0.20;0.20;;;;;;;9.75;100.00;96157.06;4912083;29;20055;-59
2023/11/02 07:09:06;;;;;;;0.20;0.20;;;;;;;9.83;100.00;96158.97;4911094;29;20068;-59
2023/11/02 07:11:34;;;;;;;0.20;0.20;;;;;;;9.96;100.00;96163.41;4906407;29;20220;-59
2023/11/02 07:14:01;;;;;;;0.17;0.17;;;;;;;9.92;100.00;96151.75;4907275;29;20550;-59
2023/11/02 07:16:28;;;;;;;0.20;0.20;;;;;;;9.99;100.00;96176.16;4907739;29;20046;-58
2023/11/02 07:18:56;;;;;;;0.20;0.20;;;;;;;10.00;100.00;96147.50;4903998;29;20364;-59
2023/11/02 07:21:23;;;;;;;0.28;0.28;;;;;;;10.01;100.00;96112.41;4909412;29;20099;-59
2023/11/02 07:23:50;;;;;;;0.20;0.20;;;;;;;9.97;100.00;96122.16;4909003;29;20051;-59
2023/11/02 07:26:18;;;;;;;0.30;0.30;;;;;;;9.97;100.00;96116.81;4906912;29;20132;-59
2023/11/02 07:28:45;;;;;;;0.20;0.20;;;;;;;9.92;100.00;96136.47;4907589;29;20053;-59
2023/11/02 07:31:12;;;;;;;0.20;0.20;;;;;;;9.95;100.00;96137.75;4907147;29;20083;-59
2023/11/02 07:33:41;;;;;;;0.20;0.20;;;;;;;10.04;100.00;96111.78;4907499;29;20539;-59
2023/11/02 07:36:11;;;;;;;0.20;0.20;;;;;;;10.08;100.00;96111.94;4907745;29;20407;-59
2023/11/02 07:38:38;;;;;;;0.30;0.30;;;;;;;10.15;100.00;96139.00;4914266;29;20059;-58
2023/11/02 07:41:09;;;;;;;0.10;0.10;;;;;;;10.22;100.00;96111.78;4915175;29;20048;-59
2023/11/02 07:43:37;;;;;;;0.20;0.20;;;;;;;10.24;100.00;96136.34;4906131;29;20870;-59
2023/11/02 07:46:06;;;;;;;0.20;0.20;;;;;;;10.25;100.00;96156.66;4909377;29;20040;-59
2023/11/02 07:48:33;;;;;;;0.20;0.20;;;;;;;10.31;100.00;96126.78;4893883;29;20049;-59
2023/11/02 07:51:03;;;;;;;0.28;0.28;;;;;;;10.43;100.00;96128.78;4900146;29;20127;-59
2023/11/02 07:53:30;;;;;;;0.20;0.20;;;;;;;10.40;100.00;96139.34;4911118;29;20479;-59
2023/11/02 07:55:57;;;;;;;0.20;0.20;;;;;;;10.46;100.00;96117.47;4906785;29;20060;-59
2023/11/02 07:58:27;;;;;;;0.30;0.30;;;;;;;10.46;100.00;96084.53;4911035;29;20415;-59
2023/11/02 08:00:56;;;;;;;0.20;0.20;;;;;;;10.60;100.00;96079.00;4904995;29;20131;-59
2023/11/02 08:03:24;;;;;;;0.20;0.20;;;;;;;10.51;100.00;96092.41;4913411;29;20056;-59
2023/11/02 08:05:51;;;;;;;0.20;0.20;;;;;;;10.53;100.00;96080.28;4915074;29;20065;-59
2023/11/02 08:08:19;;;;;;;0.20;0.20;;;;;;;10.47;100.00;96064.69;4915409;29;20546;-59
2023/11/02 08:10:46;;;;;;;0.30;0.30;;;;;;;10.51;100.00;96050.34;4906765;29;20048;-59
2023/11/02 08:13:13;;;;;;;0.10;0.10;;;;;;;10.48;100.00;96063.59;4907172;29;20079;-59
2023/11/02 08:15:41;;;;;;;0.20;0.20;;;;;;;10.57;100.00;96089.22;4887295;29;20061;-59
2023/11/02 08:18:10;;;;;;;0.20;0.20;;;;;;;10.65;100.00;96068.88;4910693;29;20072;-59
2023/11/02 08:20:38;;;;;;;0.20;0.20;;;;;;;10.83;100.00;96055.44;4906072;29;20084;-59
2023/11/02 08:23:05;;;;;;;0.30;0.30;;;;;;;11.69;100.00;96075.66;4903090;29;20067;-59
2023/11/02 08:25:32;;;;;;;0.20;0.20;;;;;;;11.92;100.00;96091.47;4903631;29;20065;-58
2023/11/02 08:28:00;;;;;;;0.20;0.20;;;;;;;11.35;100.00;96072.06;4910262;29;20044;-59
2023/11/02 08:30:29;;;;;;;0.20;0.20;;;;;;;11.30;100.00;96045.44;4911888;29;20040;-59
2023/11/02 08:32:56;;;;;;;0.20;0.20;;;;;;;11.23;100.00;96053.22;4912455;29;20052;-59
2023/11/02 08:35:24;;;;;;;0.20;0.20;;;;;;;11.12;100.00;96052.03;4905925;29;20052;-59
2023/11/02 08:37:51;;;;;;;0.13;0.13;;;;;;;11.10;100.00;96046.19;4906923;29;20479;-59
2023/11/02 08:40:20;;;;;;;0.20;0.20;;;;;;;11.21;100.00;96055.44;4899645;29;20128;-59
2023/11/02 08:42:47;;;;;;;0.17;0.17;;;;;;;11.16;100.00;96034.19;4905725;29;20534;-59
2023/11/02 08:45:15;;;;;;;0.10;0.10;;;;;;;11.09;100.00;96020.50;4915234;29;20439;-58
2023/11/02 08:47:42;;;;;;;0.20;0.20;;;;;;;11.10;100.00;96027.44;4907076;29;20682;-58
2023/11/02 08:50:10;;;;;;;0.20;0.20;;;;;;;11.27;100.00;96023.88;4904153;29;20048;-59
2023/11/02 08:52:39;;;;;;;0.20;0.20;;;;;;;11.26;100.00;96020.41;4900260;29;20052;-59
2023/11/02 08:55:06;;;;;;;0.20;0.20;;;;;;;11.34;100.00;96016.88;4898357;29;20051;-59
2023/11/02 08:57:33;;;;;;;0.10;0.10;;;;;;;11.38;100.00;96019.69;4903277;29;20436;-59
2023/11/02 09:00:01;;;;;;;0.13;0.13;;;;;;;11.47;100.00;96015.06;4909107;29;20044;-59
2023/11/02 09:02:29;;;;;;;0.13;0.13;;;;;;;11.52;100.00;96027.50;4908208;29;20292;-59
2023/11/02 09:04:56;;;;;;;0.20;0.20;;;;;;;11.53;100.00;95997.69;4907516;29;20049;-59
2023/11/02 09:07:23;;;;;;;0.10;0.10;;;;;;;11.60;100.00;96018.59;4910962;29;20155;-60
2023/11/02 09:09:52;;;;;;;0.20;0.20;;;;;;;11.57;100.00;96003.16;4903813;29;20087;-59
2023/11/02 09:12:19;;;;;;;0.20;0.20;;;;;;;11.61;100.00;96025.53;4904142;29;20041;-59
2023/11/02 09:14:45;;;;;;;0.30;0.30;;;;;;;11.59;100.00;96012.44;4903444;29;20104;-59
2023/11/02 09:17:13;;;;;;;0.17;0.17;;;;;;;11.59;100.00;96025.09;4902898;29;20135;-59
2023/11/02 09:19:40;;;;;;;0.28;0.28;;;;;;;11.83;100.00;96016.34;4904038;29;20056;-59
2023/11/02 09:22:08;;;;;;;0.13;0.13;;;;;;;11.71;100.00;96027.84;4907455;29;20225;-59
2023/11/02 09:24:35;;;;;;;0.20;0.20;;;;;;;11.92;100.00;96035.13;4904009;29;20140;-59
2023/11/02 09:27:03;;;;;;;0.10;0.10;;;;;;;11.74;100.00;96027.19;4905140;29;21901;-59
2023/11/02 09:29:30;;;;;;;0.10;0.10;;;;;;;11.83;100.00;96046.69;4898444;29;20053;-59
2023/11/02 09:31:57;;;;;;;0.20;0.20;;;;;;;11.90;100.00;96021.25;4895734;29;20167;-59
2023/11/02 09:34:24;;;;;;;0.10;0.10;;;;;;;12.04;100.00;96027.13;4900639;29;20071;-59
2023/11/02 09:36:51;;;;;;;0.20;0.20;;;;;;;11.96;100.00;96015.34;4901503;29;20068;-59
2023/11/02 09:39:18;;;;;;;0.20;0.20;;;;;;;11.98;100.00;96017.69;4900894;29;20044;-59
2023/11/02 09:41:45;;;;;;;0.20;0.20;;;;;;;12.08;100.00;96036.06;4905186;29;20068;-59
2023/11/02 09:44:14;;;;;;;0.20;0.20;;;;;;;12.07;100.00;96039.88;4911713;29;20119;-60
2023/11/02 09:46:41;;;;;;;0.10;0.10;;;;;;;12.01;100.00;96033.94;4905181;29;20056;-59
2023/11/02 09:49:08;;;;;;;0.20;0.20;;;;;;;12.03;100.00;96041.63;4903577;29;20044;-59
2023/11/02 09:51:35;;;;;;;0.20;0.20;;;;;;;12.12;100.00;96045.03;4898518;29;20459;-59
2023/11/02 09:54:02;;;;;;;0.20;0.20;;;;;;;12.01;100.00;96043.88;4904511;29;20036;-59
2023/11/02 09:56:29;;;;;;;0.20;0.20;;;;;;;11.89;100.00;96057.25;4902527;29;20070;-59
2023/11/02 09:58:57;;;;;;;0.20;0.20;;;;;;;11.92;100.00;96021.69;4903574;29;20076;-59
2023/11/02 10:01:26;;;;;;;0.20;0.20;;;;;;;11.92;100.00;96035.13;4906859;29;20482;-59
2023/11/02 10:03:53;;;;;;;0.20;0.20;;;;;;;12.15;100.00;96049.75;4906440;29;20052;-60
2023/11/02 10:06:20;;;;;;;0.20;0.20;;;;;;;12.03;100.00;96068.47;4904951;29;20138;-60
2023/11/02 10:08:47;;;;;;;0.20;0.20;;;;;;;12.19;100.00;96050.66;4903744;29;20530;-58
2023/11/02 10:11:14;;;;;;;0.20;0.20;;;;;;;12.02;100.00;96046.22;4905679;29;20574;-58
2023/11/02 10:13:43;;;;;;;0.10;0.10;;;;;;;11.95;100.00;96066.66;4909433;29;20048;-59
2023/11/02 10:16:10;;;;;;;0.20;0.20;;;;;;;11.60;100.00;96056.94;4904770;29;20123;-60
2023/11/02 10:18:38;;;;;;;0.30;0.30;;;;;;;11.60;100.00;96056.16;4899491;29;20090;-60
2023/11/02 10:21:08;;;;;;;0.20;0.20;;;;;;;11.62;100.00;96037.84;4913419;29;21568;-60
2023/11/02 10:23:49;;;;;;;0.20;0.20;;;;;;;11.68;100.00;96046.47;4913301;29;20048;-60
2023/11/02 10:26:16;;;;;;;0.20;0.20;;;;;;;11.89;100.00;96027.72;4914833;29;20565;-60
2023/11/02 10:28:43;;;;;;;0.20;0.20;;;;;;;11.65;100.00;96026.44;4908872;29;20459;-60
2023/11/02 10:31:10;;;;;;;0.20;0.20;;;;;;;11.76;100.00;96038.38;4915281;29;20479;-60
2023/11/02 10:33:39;;;;;;;0.20;0.20;;;;;;;11.82;100.00;96055.03;4915705;29;20167;-59
2023/11/02 10:36:07;;;;;;;0.20;0.20;;;;;;;11.72;100.00;96053.53;4909002;29;20128;-59
2023/11/02 10:38:34;;;;;;;0.20;0.20;;;;;;;11.77;100.00;96034.56;4908754;29;20467;-59
2023/11/02 10:41:01;;;;;;;0.20;0.20;;;;;;;11.41;100.00;96049.34;4914824;29;20514;-59
2023/11/02 10:43:30;;;;;;;0.20;0.20;;;;;;;11.53;100.00;96029.06;4908767;29;20071;-59
2023/11/02 10:45:57;;;;;;;0.20;0.20;;;;;;;11.78;100.00;96030.78;4906250;29;20103;-59
2023/11/02 10:48:24;;;;;;;0.10;0.10;;;;;;;11.95;100.00;96019.13;4913835;29;20583;-59
2023/11/02 10:50:56;;;;;;;0.10;0.10;;;;;;;12.17;100.00;96031.41;4916652;29;20116;-59
2023/11/02 10:53:29;;;;;;;0.20;0.20;;;;;;;11.85;100.00;96017.59;4915441;29;20053;-60
2023/11/02 10:55:59;;;;;;;0.20;0.20;;;;;;;11.99;100.00;96030.00;4903878;29;20052;-59
2023/11/02 10:58:26;;;;;;;;;;;;;;;12.26;100.00;96036.72;4902624;29;20052;-57
2023/11/02 11:00:53;;;;;;;0.28;0.28;;;;;;;11.95;100.00;96027.19;4908483;29;19948;-59
2023/11/02 11:03:21;;;;;;;0.20;0.20;;;;;;;12.16;100.00;96024.47;4909686;29;20044;-59
2023/11/02 11:05:49;;;;;;;0.20;0.20;;;;;;;11.94;100.00;96038.25;4900922;29;20056;-60
2023/11/02 11:08:17;;;;;;;0.15;0.15;;;;;;;12.03;100.00;96041.63;4916557;29;20043;-60
2023/11/02 11:10:44;;;;;;;0.20;0.20;;;;;;;11.98;100.00;96037.28;4903133;29;20049;-60
2023/11/02 11:13:12;;;;;;;0.10;0.10;;;;;;;11.99;100.00;96024.63;4908389;29;20048;-59
2023/11/02 11:15:39;;;;;;;0.20;0.20;;;;;;;12.01;100.00;96041.22;4901677;29;20047;-59
2023/11/02 11:18:06;;;;;;;0.10;0.10;;;;;;;11.98;100.00;96039.16;4907278;29;20048;-59
2023/11/02 11:20:34;;;;;;;0.15;0.15;;;;;;;11.86;100.00;96061.34;4911631;29;20056;-59
2023/11/02 11:23:03;;;;;;;0.20;0.20;;;;;;;11.99;100.00;96044.22;4913304;29;20067;-59
2023/11/02 11:25:32;;;;;;;0.10;0.10;;;;;;;12.10;100.00;96058.00;4907853;29;20051;-59
2023/11/02 11:27:59;;;;;;;0.10;0.10;;;;;;;12.12;100.00;96049.63;4904033;29;20324;-59
2023/11/02 11:30:35;;;;;;;0.20;0.20;;;;;;;12.04;100.00;96043.22;4916305;29;20491;-59
2023/11/02 11:33:03;;;;;;;0.20;0.20;;;;;;;12.10;100.00;96039.22;4911905;29;20051;-59
2023/11/02 11:35:31;;;;;;;0.13;0.13;;;;;;;12.25;100.00;96054.69;4913168;29;20045;-59
2023/11/02 11:38:01;;;;;;;0.20;0.20;;;;;;;12.05;100.00;96031.34;4902103;29;20396;-59